createdAt,value
2023-04-01T00:01:17.934Z,9.63
2023-04-01T00:03:45.539Z,9.43
2023-04-01T00:06:16.775Z,9.05
2023-04-01T00:08:44.049Z,9.85
2023-04-01T00:11:11.512Z,9.50
2023-04-01T00:13:38.454Z,10.48
2023-04-01T00:16:13.875Z,9.60
2023-04-01T00:18:48.459Z,8.80
2023-04-01T00:21:16.121Z,8.68
2023-04-01T00:23:43.259Z,7.90
2023-04-01T00:26:10.623Z,8.07
2023-04-01T00:28:38.537Z,8.70
2023-04-01T00:31:07.359Z,9.38
2023-04-01T00:33:34.379Z,9.50
2023-04-01T00:36:15.343Z,9.90
2023-04-01T00:38:43.358Z,9.25
2023-04-01T00:41:15.214Z,9.70
2023-04-01T00:43:46.907Z,9.40
2023-04-01T00:46:13.782Z,8.77
2023-04-01T00:48:49.382Z,9.48
2023-04-01T00:51:24.774Z,9.32
2023-04-01T00:53:53.355Z,9.00
2023-04-01T00:56:35.132Z,9.13
2023-04-01T00:59:05.681Z,8.32
2023-04-01T01:01:32.579Z,8.80
2023-04-01T01:03:59.399Z,8.98
2023-04-01T01:06:48.266Z,8.75
2023-04-01T01:09:22.582Z,8.63
2023-04-01T01:11:51.431Z,8.75
2023-04-01T01:14:21.347Z,8.40
2023-04-01T01:16:53.954Z,8.85
2023-04-01T01:19:23.844Z,9.23
2023-04-01T01:21:59.319Z,8.98
2023-04-01T01:24:49.226Z,8.60
2023-04-01T01:27:19.723Z,8.65
2023-04-01T01:30:10.511Z,8.10
2023-04-01T01:32:52.623Z,7.90
2023-04-01T01:35:34.582Z,8.05
2023-04-01T01:38:06.127Z,7.35
2023-04-01T01:40:33.598Z,8.15
2023-04-01T01:43:03.692Z,8.15
2023-04-01T01:45:30.965Z,8.20
2023-04-01T01:47:58.917Z,7.72
2023-04-01T01:50:25.987Z,7.82
2023-04-01T01:53:00.608Z,7.78
2023-04-01T01:55:32.832Z,7.97
2023-04-01T02:00:27.712Z,6.22
2023-04-01T02:02:54.696Z,5.53
2023-04-01T02:05:23.998Z,4.47
2023-04-01T02:08:36.104Z,4.05
2023-04-01T02:11:11.437Z,3.78
2023-04-01T02:13:47.232Z,3.88
2023-04-01T02:16:35.775Z,3.83
2023-04-01T02:19:08.245Z,4.05
2023-04-01T02:21:35.422Z,4.22
2023-04-01T02:24:03.392Z,4.13
2023-04-01T02:26:30.260Z,4.65
2023-04-01T02:28:57.972Z,4.32
2023-04-01T02:31:25.109Z,4.88
2023-04-01T02:33:51.948Z,5.28
2023-04-01T02:36:18.883Z,4.47
2023-04-01T02:38:46.013Z,4.78
2023-04-01T02:41:13.006Z,4.40
2023-04-01T02:43:39.865Z,5.07
2023-04-01T02:46:06.802Z,4.35
2023-04-01T02:48:33.612Z,4.50
2023-04-01T02:51:00.404Z,4.68
2023-04-01T02:53:27.266Z,4.03
2023-04-01T02:55:54.148Z,4.50
2023-04-01T02:58:21.038Z,4.18
2023-04-01T03:00:47.881Z,4.45
2023-04-01T03:03:14.912Z,4.38
2023-04-01T03:05:41.843Z,4.53
2023-04-01T03:08:08.630Z,4.53
2023-04-01T03:10:35.682Z,4.25
2023-04-01T03:13:04.232Z,4.38
2023-04-01T03:15:31.392Z,4.07
2023-04-01T03:17:58.489Z,3.70
2023-04-01T03:20:25.460Z,3.58
2023-04-01T03:22:52.295Z,3.30
2023-04-01T03:25:19.296Z,3.10
2023-04-01T03:27:46.306Z,2.92
2023-04-01T03:30:13.419Z,2.90
2023-04-01T03:32:48.865Z,3.00
2023-04-01T03:35:16.128Z,2.90
2023-04-01T03:37:43.092Z,2.92
2023-04-01T03:40:10.707Z,3.08
2023-04-01T03:42:37.768Z,3.13
2023-04-01T03:45:05.995Z,3.17
2023-04-01T03:47:32.812Z,2.78
2023-04-01T03:49:59.655Z,2.90
2023-04-01T03:52:26.899Z,2.90
2023-04-01T03:54:53.850Z,2.97
2023-04-01T03:57:20.769Z,2.85
2023-04-01T03:59:47.785Z,2.97
2023-04-01T04:02:14.610Z,2.72
2023-04-01T04:04:42.195Z,2.63
2023-04-01T04:07:09.311Z,2.63
2023-04-01T04:09:56.132Z,2.97
2023-04-01T04:12:23.022Z,2.83
2023-04-01T04:14:49.810Z,2.97
2023-04-01T04:17:17.374Z,2.85
2023-04-01T04:19:44.806Z,3.00
2023-04-01T04:22:11.879Z,2.80
2023-04-01T04:24:39.216Z,2.60
2023-04-01T04:27:12.606Z,2.70
2023-04-01T04:29:50.612Z,2.55
2023-04-01T04:32:17.468Z,3.17
2023-04-01T04:34:46.955Z,3.00
2023-04-01T04:37:13.988Z,3.13
2023-04-01T04:39:40.839Z,2.50
2023-04-01T04:42:07.687Z,2.78
2023-04-01T04:44:34.705Z,2.50
2023-04-01T04:47:02.488Z,2.47
2023-04-01T04:49:29.407Z,2.40
2023-04-01T04:51:56.381Z,2.30
2023-04-01T04:54:26.414Z,2.10
2023-04-01T04:56:56.558Z,2.22
2023-04-01T04:59:25.539Z,2.20
2023-04-01T05:02:18.725Z,2.40
2023-04-01T05:04:45.772Z,2.30
2023-04-01T05:07:12.773Z,2.30
2023-04-01T05:09:39.627Z,2.30
2023-04-01T05:12:07.132Z,2.53
2023-04-01T05:14:53.544Z,2.60
2023-04-01T05:17:20.671Z,2.60
2023-04-01T05:19:47.544Z,2.60
2023-04-01T05:22:14.516Z,2.38
2023-04-01T05:24:41.932Z,2.50
2023-04-01T05:27:09.031Z,2.30
2023-04-01T05:29:39.442Z,2.38
2023-04-01T05:32:09.020Z,2.25
2023-04-01T05:34:36.266Z,2.13
2023-04-01T05:37:03.061Z,2.13
2023-04-01T05:39:30.067Z,2.20
2023-04-01T05:41:56.896Z,2.30
2023-04-01T05:44:23.762Z,2.30
2023-04-01T05:47:13.636Z,2.25
2023-04-01T05:49:41.083Z,2.30
2023-04-01T05:52:08.296Z,2.33
2023-04-01T05:54:36.600Z,2.70
2023-04-01T05:57:03.581Z,2.50
2023-04-01T05:59:32.265Z,2.58
2023-04-01T06:02:00.123Z,2.97
2023-04-01T06:04:29.453Z,2.65
2023-04-01T06:06:56.504Z,3.58
2023-04-01T06:09:28.361Z,2.80
2023-04-01T06:12:17.422Z,2.80
2023-04-01T06:15:02.145Z,3.00
2023-04-01T06:17:51.166Z,2.95
2023-04-01T06:20:28.855Z,2.88
2023-04-01T06:23:34.921Z,3.45
2023-04-01T06:26:21.217Z,3.10
2023-04-01T06:28:55.993Z,2.88
2023-04-01T06:31:27.760Z,3.15
2023-04-01T06:34:07.617Z,3.30
2023-04-01T06:36:44.191Z,3.10
2023-04-01T06:39:43.376Z,3.03
2023-04-01T06:42:19.163Z,2.50
2023-04-01T06:45:12.124Z,2.80
2023-04-01T06:48:32.469Z,3.42
2023-04-01T06:51:27.004Z,3.60
2023-04-01T06:54:39.819Z,3.85
2023-04-01T06:57:26.858Z,3.92
2023-04-01T06:59:53.777Z,4.07
2023-04-01T07:02:37.267Z,4.45
2023-04-01T07:05:04.464Z,3.90
2023-04-01T07:07:52.444Z,3.30
2023-04-01T07:10:24.853Z,3.67
2023-04-01T07:13:32.419Z,3.58
2023-04-01T07:16:20.550Z,3.38
2023-04-01T07:19:18.641Z,3.35
2023-04-01T07:21:59.502Z,3.28
2023-04-01T07:24:41.635Z,3.40
2023-04-01T07:27:14.177Z,3.80
2023-04-01T07:29:42.632Z,3.90
2023-04-01T07:32:51.359Z,3.70
2023-04-01T07:35:21.738Z,3.83
2023-04-01T07:38:27.822Z,3.70
2023-04-01T07:41:07.197Z,3.72
2023-04-01T07:44:02.521Z,3.80
2023-04-01T07:46:48.040Z,3.70
2023-04-01T07:49:23.494Z,3.53
2023-04-01T07:52:05.300Z,3.88
2023-04-01T07:54:50.256Z,3.65
2023-04-01T07:57:39.032Z,3.40
2023-04-01T08:00:28.552Z,3.60
2023-04-01T08:03:25.972Z,3.20
2023-04-01T08:05:58.592Z,3.13
2023-04-01T08:08:43.607Z,3.03
2023-04-01T08:11:59.262Z,3.63
2023-04-01T08:15:13.791Z,4.45
2023-04-01T08:18:20.377Z,3.85
2023-04-01T08:20:49.831Z,4.22
2023-04-01T08:23:25.356Z,4.63
2023-04-01T08:25:58.071Z,4.75
2023-04-01T08:28:43.532Z,4.85
2023-04-01T08:31:17.261Z,5.03
2023-04-01T08:33:45.649Z,4.50
2023-04-01T08:36:25.978Z,5.07
2023-04-01T08:39:13.513Z,4.40
2023-04-01T08:41:51.531Z,4.70
2023-04-01T08:45:13.122Z,4.63
2023-04-01T08:48:02.123Z,5.40
2023-04-01T08:50:45.305Z,5.60
2023-04-01T08:53:36.313Z,5.22
2023-04-01T08:56:29.492Z,5.53
2023-04-01T08:59:21.504Z,5.70
2023-04-01T09:02:06.989Z,5.57
2023-04-01T09:04:59.602Z,5.18
2023-04-01T09:07:33.559Z,5.25
2023-04-01T09:10:37.557Z,6.05
2023-04-01T09:13:52.640Z,5.30
2023-04-01T09:16:41.131Z,4.40
2023-04-01T09:19:23.458Z,4.47
2023-04-01T09:22:15.389Z,4.10
2023-04-01T09:25:02.314Z,4.25
2023-04-01T09:27:39.044Z,4.53
2023-04-01T09:30:35.919Z,4.57
2023-04-01T09:33:18.138Z,4.50
2023-04-01T09:35:49.817Z,4.05
2023-04-01T09:38:27.929Z,4.72
2023-04-01T09:41:16.290Z,4.03
2023-04-01T09:44:30.268Z,4.07
2023-04-01T09:47:30.095Z,3.65
2023-04-01T09:50:16.794Z,3.78
2023-04-01T09:53:10.775Z,3.97
2023-04-01T09:55:50.966Z,4.28
2023-04-01T09:58:33.718Z,4.20
2023-04-01T10:02:06.276Z,4.32
2023-04-01T10:05:06.658Z,3.95
2023-04-01T10:07:43.397Z,4.75
2023-04-01T10:10:47.890Z,4.45
2023-04-01T10:13:31.244Z,4.65
2023-04-01T10:16:05.176Z,4.67
2023-04-01T10:19:05.119Z,5.35
2023-04-01T10:22:10.484Z,4.00
2023-04-01T10:24:59.787Z,3.70
2023-04-01T10:27:46.079Z,3.65
2023-04-01T10:30:36.164Z,2.75
2023-04-01T10:33:45.507Z,2.92
2023-04-01T10:36:31.249Z,2.80
2023-04-01T10:39:36.479Z,3.17
2023-04-01T10:42:25.284Z,2.97
2023-04-01T10:45:10.636Z,3.10
2023-04-01T10:48:19.512Z,3.50
2023-04-01T10:51:17.312Z,3.75
2023-04-01T10:53:48.089Z,4.57
2023-04-01T10:56:51.418Z,4.03
2023-04-01T11:00:04.129Z,4.35
2023-04-01T11:02:58.543Z,3.67
2023-04-01T11:06:02.136Z,3.53
2023-04-01T11:09:07.792Z,4.00
2023-04-01T11:11:43.828Z,3.33
2023-04-01T11:14:31.873Z,3.65
2023-04-01T11:17:28.074Z,3.97
2023-04-01T11:20:07.167Z,4.15
2023-04-01T11:22:37.113Z,4.70
2023-04-01T11:25:19.669Z,5.05
2023-04-01T11:28:25.360Z,4.68
2023-04-01T11:31:38.230Z,4.70
2023-04-01T11:34:29.662Z,4.28
2023-04-01T11:36:57.224Z,4.30
2023-04-01T11:39:45.189Z,4.70
2023-04-01T11:42:37.340Z,5.20
2023-04-01T11:45:42.308Z,4.63
2023-04-01T11:48:45.529Z,5.80
2023-04-01T11:51:42.617Z,5.32
2023-04-01T11:54:33.429Z,4.80
2023-04-01T11:57:04.319Z,4.93
2023-04-01T11:59:50.058Z,5.10
2023-04-01T12:03:02.363Z,4.75
2023-04-01T12:05:47.122Z,4.25
2023-04-01T12:08:47.773Z,4.50
2023-04-01T12:11:27.199Z,4.30
2023-04-01T12:14:32.725Z,4.30
2023-04-01T12:17:13.695Z,3.63
2023-04-01T12:20:11.511Z,4.13
2023-04-01T12:22:41.494Z,3.72
2023-04-01T12:25:43.972Z,4.40
2023-04-01T12:28:27.423Z,3.50
2023-04-01T12:31:15.527Z,3.75
2023-04-01T12:34:20.332Z,3.70
2023-04-01T12:36:53.361Z,4.18
2023-04-01T12:39:49.040Z,3.75
2023-04-01T12:42:28.735Z,3.92
2023-04-01T12:45:16.689Z,3.60
2023-04-01T12:47:57.596Z,3.30
2023-04-01T12:50:42.983Z,2.90
2023-04-01T12:53:34.936Z,2.97
2023-04-01T12:56:04.787Z,3.10
2023-04-01T12:58:43.118Z,2.85
2023-04-01T13:01:38.266Z,3.03
2023-04-01T13:04:23.215Z,2.92
2023-04-01T13:07:12.177Z,3.92
2023-04-01T13:09:42.068Z,2.92
2023-04-01T13:12:34.263Z,2.92
2023-04-01T13:15:55.287Z,2.78
2023-04-01T13:18:22.411Z,2.60
2023-04-01T13:21:01.593Z,3.10
2023-04-01T13:24:03.634Z,2.92
2023-04-01T13:26:54.947Z,2.97
2023-04-01T13:29:31.782Z,3.00
2023-04-01T13:32:04.857Z,3.28
2023-04-01T13:34:57.858Z,3.28
2023-04-01T13:37:41.801Z,2.88
2023-04-01T13:40:27.224Z,3.17
2023-04-01T13:43:09.914Z,3.47
2023-04-01T13:46:09.831Z,3.40
2023-04-01T13:49:01.746Z,4.10
2023-04-01T13:52:06.396Z,2.80
2023-04-01T13:54:45.420Z,3.25
2023-04-01T13:57:33.344Z,3.00
2023-04-01T14:00:18.943Z,3.05
2023-04-01T14:03:10.590Z,2.90
2023-04-01T14:05:43.686Z,2.67
2023-04-01T14:08:15.003Z,2.33
2023-04-01T14:11:05.603Z,2.50
2023-04-01T14:13:54.679Z,2.40
2023-04-01T14:16:58.834Z,2.83
2023-04-01T14:19:48.697Z,2.00
2023-04-01T14:22:16.208Z,2.20
2023-04-01T14:24:54.385Z,2.38
2023-04-01T14:27:29.045Z,2.97
2023-04-01T14:30:13.957Z,2.50
2023-04-01T14:33:06.218Z,2.85
2023-04-01T14:35:59.663Z,2.85
2023-04-01T14:38:35.464Z,2.60
2023-04-01T14:41:11.633Z,2.40
2023-04-01T14:44:00.360Z,2.90
2023-04-01T14:46:54.848Z,2.28
2023-04-01T14:49:31.236Z,2.80
2023-04-01T14:52:00.884Z,3.70
2023-04-01T14:54:38.752Z,3.08
2023-04-01T14:57:17.612Z,2.65
2023-04-01T14:59:49.776Z,2.78
2023-04-01T15:02:39.027Z,3.70
2023-04-01T15:05:22.419Z,3.40
2023-04-01T15:08:07.156Z,3.35
2023-04-01T15:14:41.508Z,3.35
2023-04-01T15:17:14.063Z,3.85
2023-04-01T15:20:04.061Z,4.32
2023-04-01T15:22:54.805Z,4.00
2023-04-01T15:25:40.160Z,3.90
2023-04-01T15:28:09.981Z,3.88
2023-04-01T15:30:55.101Z,3.72
2023-04-01T15:33:33.998Z,4.20
2023-04-01T15:36:14.531Z,4.10
2023-04-01T15:38:58.489Z,4.30
2023-04-01T15:41:48.210Z,3.90
2023-04-01T15:44:34.571Z,4.07
2023-04-01T15:47:01.439Z,4.13
2023-04-01T15:49:43.248Z,3.60
2023-04-01T15:52:31.637Z,4.03
2023-04-01T15:55:07.786Z,4.22
2023-04-01T15:57:37.516Z,4.13
2023-04-01T16:00:27.740Z,4.35
2023-04-01T16:03:13.357Z,4.60
2023-04-01T16:06:02.697Z,4.47
2023-04-01T16:08:54.873Z,4.50
2023-04-01T16:11:41.791Z,4.60
2023-04-01T16:14:14.103Z,4.00
2023-04-01T16:19:39.143Z,3.85
2023-04-01T16:22:19.368Z,4.00
2023-04-01T16:24:52.368Z,3.88
2023-04-01T16:27:26.515Z,3.88
2023-04-01T16:30:23.526Z,4.05
2023-04-01T16:33:23.189Z,4.82
2023-04-01T16:36:11.266Z,5.00
2023-04-01T16:38:42.850Z,4.72
2023-04-01T16:41:13.686Z,4.55
2023-04-01T16:43:47.427Z,4.25
2023-04-01T16:47:09.328Z,4.43
2023-04-01T16:49:53.266Z,4.40
2023-04-01T16:53:00.972Z,3.90
2023-04-01T16:56:01.434Z,3.88
2023-04-01T16:59:04.717Z,4.15
2023-04-01T17:01:55.385Z,4.28
2023-04-01T17:04:58.560Z,4.60
2023-04-01T17:07:40.938Z,5.30
2023-04-01T17:10:26.044Z,4.63
2023-04-01T17:13:38.100Z,4.55
2023-04-01T17:16:17.894Z,4.13
2023-04-01T17:19:09.121Z,4.50
2023-04-01T17:21:45.016Z,6.20
2023-04-01T17:24:26.788Z,5.72
2023-04-01T17:27:21.666Z,4.00
2023-04-01T17:30:03.833Z,4.45
2023-04-01T17:33:08.024Z,4.10
2023-04-01T17:35:41.290Z,4.00
2023-04-01T17:38:35.792Z,4.03
2023-04-01T17:41:05.396Z,4.13
2023-04-01T17:43:53.907Z,3.88
2023-04-01T17:46:20.691Z,3.72
2023-04-01T17:49:01.606Z,3.55
2023-04-01T17:51:34.268Z,3.50
2023-04-01T17:54:04.716Z,3.75
2023-04-01T17:57:26.143Z,3.80
2023-04-01T18:00:04.472Z,3.55
2023-04-01T18:02:38.571Z,3.30
2023-04-01T18:05:21.921Z,3.58
2023-04-01T18:08:14.390Z,3.90
2023-04-01T18:10:58.354Z,4.00
2023-04-01T18:13:32.537Z,4.25
2023-04-01T18:16:21.398Z,6.47
2023-04-01T18:19:16.868Z,6.45
2023-04-01T18:21:45.541Z,7.50
2023-04-01T18:24:34.693Z,6.38
2023-04-01T18:27:06.267Z,7.93
2023-04-01T18:30:03.238Z,4.75
2023-04-01T18:32:37.664Z,8.23
2023-04-01T18:35:44.483Z,5.47
2023-04-01T18:38:14.879Z,6.80
2023-04-01T18:40:41.665Z,8.05
2023-04-01T18:43:40.205Z,6.95
2023-04-01T18:46:27.278Z,4.50
2023-04-01T18:49:00.010Z,5.22
2023-04-01T18:51:37.731Z,5.22
2023-04-01T18:54:24.274Z,3.83
2023-04-01T18:56:51.749Z,4.80
2023-04-01T18:59:28.538Z,4.07
2023-04-01T19:02:35.812Z,3.78
2023-04-01T19:05:24.855Z,3.58
2023-04-01T19:07:56.116Z,3.78
2023-04-01T19:10:23.026Z,4.10
2023-04-01T19:13:34.417Z,3.53
2023-04-01T19:16:26.729Z,3.92
2023-04-01T19:19:06.141Z,3.90
2023-04-01T19:21:47.892Z,4.30
2023-04-01T19:24:47.100Z,3.65
2023-04-01T19:27:32.857Z,3.70
2023-04-01T19:30:14.859Z,3.60
2023-04-01T19:33:05.928Z,3.63
2023-04-01T19:35:47.892Z,5.05
2023-04-01T19:38:29.697Z,4.00
2023-04-01T19:40:59.027Z,3.97
2023-04-01T19:43:44.532Z,3.95
2023-04-01T19:46:42.543Z,3.80
2023-04-01T19:49:37.541Z,3.92
2023-04-01T19:52:15.723Z,4.05
2023-04-01T19:55:04.330Z,2.80
2023-04-01T19:57:36.344Z,2.60
2023-04-01T20:00:26.049Z,2.78
2023-04-01T20:03:11.328Z,2.53
2023-04-01T20:05:51.265Z,2.65
2023-04-01T20:08:29.771Z,2.65
2023-04-01T20:11:18.164Z,2.70
2023-04-01T20:14:13.012Z,2.85
2023-04-01T20:17:08.060Z,2.60
2023-04-01T20:19:37.759Z,3.03
2023-04-01T20:22:09.515Z,2.88
2023-04-01T20:24:43.767Z,3.10
2023-04-01T20:27:13.605Z,2.47
2023-04-01T20:29:48.697Z,3.35
2023-04-01T20:32:42.982Z,2.90
2023-04-01T20:35:31.428Z,2.47
2023-04-01T20:38:36.806Z,2.88
2023-04-01T20:41:09.644Z,2.47
2023-04-01T20:43:49.796Z,2.55
2023-04-01T20:46:35.594Z,2.50
2023-04-01T20:49:21.468Z,2.50
2023-04-01T20:52:12.734Z,2.35
2023-04-01T20:55:14.893Z,2.67
2023-04-01T20:57:52.480Z,2.33
2023-04-01T21:00:22.232Z,2.35
2023-04-01T21:02:54.188Z,1.92
2023-04-01T21:05:37.383Z,2.08
2023-04-01T21:08:06.981Z,2.20
2023-04-01T21:10:43.137Z,2.42
2023-04-01T21:13:37.381Z,2.15
2023-04-01T21:16:24.902Z,2.30
2023-04-01T21:18:51.724Z,2.25
2023-04-01T21:21:28.002Z,2.50
2023-04-01T21:24:13.308Z,2.70
2023-04-01T21:27:40.508Z,2.30
2023-04-01T21:30:16.119Z,2.20
2023-04-01T21:32:43.029Z,2.08
2023-04-01T21:35:33.583Z,1.63
2023-04-01T21:38:15.975Z,1.88
2023-04-01T21:41:20.824Z,2.10
2023-04-01T21:44:27.256Z,1.80
2023-04-01T21:47:09.271Z,1.80
2023-04-01T21:49:54.927Z,1.90
2023-04-01T21:53:03.910Z,1.80
2023-04-01T21:55:45.405Z,1.70
2023-04-01T21:58:30.415Z,1.90
2023-04-01T22:01:12.065Z,1.90
2023-04-01T22:04:00.150Z,1.87
2023-04-01T22:06:32.074Z,2.00
2023-04-01T22:09:20.763Z,2.13
2023-04-01T22:11:50.736Z,2.20
2023-04-01T22:14:29.854Z,2.40
2023-04-01T22:16:59.072Z,2.17
2023-04-01T22:19:42.996Z,2.42
2023-04-01T22:22:33.076Z,2.53
2023-04-01T22:25:17.566Z,1.90
2023-04-01T22:27:51.299Z,1.80
2023-04-01T22:30:25.159Z,2.08
2023-04-01T22:33:05.099Z,2.00
2023-04-01T22:35:44.910Z,1.73
2023-04-01T22:38:20.629Z,2.03
2023-04-01T22:41:06.612Z,2.22
2023-04-01T22:43:44.253Z,1.65
2023-04-01T22:46:50.681Z,1.90
2023-04-01T22:49:42.760Z,1.90
2023-04-01T22:52:39.686Z,1.63
2023-04-01T22:55:18.993Z,1.63
2023-04-01T22:57:50.768Z,1.77
2023-04-01T23:00:27.491Z,2.15
2023-04-01T23:03:09.806Z,1.63
2023-04-01T23:05:41.171Z,1.83
2023-04-01T23:08:38.174Z,1.45
2023-04-01T23:11:09.893Z,1.50
2023-04-01T23:13:45.395Z,1.85
2023-04-01T23:16:12.332Z,1.80
2023-04-01T23:18:54.267Z,1.95
2023-04-01T23:21:28.062Z,1.90
2023-04-01T23:24:04.006Z,2.00
2023-04-01T23:26:42.072Z,1.92
2023-04-01T23:29:16.041Z,2.08
2023-04-01T23:31:43.695Z,2.08
2023-04-01T23:34:13.618Z,2.00
2023-04-01T23:36:45.499Z,2.03
2023-04-01T23:39:31.893Z,1.85
2023-04-01T23:42:04.463Z,1.80
2023-04-01T23:44:31.375Z,2.30
2023-04-01T23:46:58.408Z,2.10
2023-04-01T23:49:29.510Z,2.30
2023-04-01T23:52:00.987Z,2.30
2023-04-01T23:54:35.507Z,1.90
2023-04-01T23:57:07.197Z,2.20
2023-04-01T23:59:35.915Z,2.50
